createdAt,value
2018-12-25T00:02:00.256Z,3.97
2018-12-25T00:04:33.869Z,3.67
2018-12-25T00:07:07.480Z,2.75
2018-12-25T00:09:40.979Z,2.97
2018-12-25T00:12:14.597Z,3.40
2018-12-25T00:14:48.215Z,3.47
2018-12-25T00:17:22.001Z,3.15
2018-12-25T00:19:55.600Z,3.12
2018-12-25T00:22:29.439Z,4.32
2018-12-25T00:25:03.085Z,3.58
2018-12-25T00:27:36.751Z,3.50
2018-12-25T00:30:10.304Z,2.85
2018-12-25T00:32:44.137Z,3.67
2018-12-25T00:35:17.720Z,2.72
2018-12-25T00:37:51.338Z,3.17
2018-12-25T00:40:25.017Z,3.85
2018-12-25T00:43:00.154Z,4.07
2018-12-25T00:45:33.748Z,3.50
2018-12-25T00:48:07.447Z,4.03
2018-12-25T00:50:41.190Z,4.12
2018-12-25T00:53:14.739Z,4.00
2018-12-25T00:55:48.337Z,4.37
2018-12-25T00:58:21.987Z,3.80
2018-12-25T01:00:55.603Z,4.00
2018-12-25T01:03:29.346Z,3.65
2018-12-25T01:06:02.908Z,3.55
2018-12-25T01:08:37.172Z,3.90
2018-12-25T01:11:11.761Z,3.37
2018-12-25T01:13:45.422Z,4.50
2018-12-25T01:16:19.155Z,3.10
2018-12-25T01:18:52.793Z,3.53
2018-12-25T01:21:26.445Z,4.28
2018-12-25T01:24:00.133Z,3.60
2018-12-25T01:26:33.764Z,3.75
2018-12-25T01:29:08.061Z,4.40
2018-12-25T01:31:41.686Z,3.45
2018-12-25T01:34:15.458Z,3.90
2018-12-25T01:36:49.023Z,4.32
2018-12-25T01:39:23.403Z,3.35
2018-12-25T01:41:56.987Z,3.33
2018-12-25T01:44:30.723Z,3.87
2018-12-25T01:47:04.478Z,3.75
2018-12-25T01:49:38.235Z,4.05
2018-12-25T01:52:11.985Z,3.65
2018-12-25T01:54:45.769Z,3.65
2018-12-25T01:57:19.543Z,5.15
2018-12-25T01:59:53.246Z,4.45
2018-12-25T02:02:27.119Z,4.72
2018-12-25T02:05:00.939Z,4.45
2018-12-25T02:07:34.559Z,4.35
2018-12-25T02:10:08.374Z,3.97
2018-12-25T02:12:42.016Z,4.70
2018-12-25T02:15:15.575Z,3.65
2018-12-25T02:17:49.355Z,4.57
2018-12-25T02:20:23.055Z,4.15
2018-12-25T02:22:56.813Z,4.62
2018-12-25T02:25:30.549Z,3.87
2018-12-25T02:28:04.137Z,5.00
2018-12-25T02:30:37.809Z,4.62
2018-12-25T02:33:12.141Z,4.22
2018-12-25T02:35:45.686Z,4.72
2018-12-25T02:38:19.231Z,4.28
2018-12-25T02:40:52.824Z,3.67
2018-12-25T02:43:26.623Z,4.43
2018-12-25T02:46:00.176Z,4.53
2018-12-25T02:48:34.064Z,3.45
2018-12-25T02:51:08.479Z,5.07
2018-12-25T02:53:43.855Z,4.00
2018-12-25T02:56:17.441Z,4.20
2018-12-25T02:58:51.026Z,4.28
2018-12-25T03:01:24.730Z,4.22
2018-12-25T03:03:59.076Z,5.12
2018-12-25T03:06:33.577Z,4.70
2018-12-25T03:09:07.236Z,4.07
2018-12-25T03:11:40.939Z,3.92
2018-12-25T03:14:14.748Z,5.68
2018-12-25T03:16:48.443Z,4.05
2018-12-25T03:19:22.091Z,4.47
2018-12-25T03:21:55.636Z,4.90
2018-12-25T03:24:29.233Z,4.05
2018-12-25T03:27:02.908Z,4.40
2018-12-25T03:29:37.333Z,3.50
2018-12-25T03:32:10.920Z,3.37
2018-12-25T03:34:44.429Z,4.57
2018-12-25T03:37:18.047Z,4.80
2018-12-25T03:39:51.663Z,4.70
2018-12-25T03:42:25.901Z,4.90
2018-12-25T03:44:59.484Z,6.50
2018-12-25T03:47:33.153Z,4.00
2018-12-25T03:50:10.974Z,5.60
2018-12-25T03:52:40.584Z,3.62
2018-12-25T03:55:14.174Z,5.45
2018-12-25T03:57:47.784Z,4.82
2018-12-25T04:00:21.517Z,4.75
2018-12-25T04:02:55.084Z,4.43
2018-12-25T04:05:28.687Z,5.22
2018-12-25T04:08:02.420Z,5.30
2018-12-25T04:10:36.342Z,5.50
2018-12-25T04:13:10.056Z,5.35
2018-12-25T04:15:43.714Z,5.03
2018-12-25T04:18:17.324Z,5.12
2018-12-25T04:20:51.129Z,5.32
2018-12-25T04:23:24.715Z,5.12
2018-12-25T04:25:58.310Z,5.55
2018-12-25T04:28:32.019Z,4.93
2018-12-25T04:31:05.684Z,5.20
2018-12-25T04:33:39.410Z,6.00
2018-12-25T04:36:13.197Z,4.93
2018-12-25T04:38:46.851Z,6.50
2018-12-25T04:41:20.439Z,4.82
2018-12-25T04:43:54.108Z,5.28
2018-12-25T04:46:27.745Z,6.22
2018-12-25T04:49:01.311Z,4.87
2018-12-25T04:51:35.713Z,4.60
2018-12-25T04:54:10.252Z,4.75
2018-12-25T04:56:44.012Z,4.43
2018-12-25T04:59:17.747Z,4.45
2018-12-25T05:01:51.377Z,4.40
2018-12-25T05:04:24.924Z,5.50
2018-12-25T05:06:58.507Z,4.85
2018-12-25T05:09:32.179Z,5.20
2018-12-25T05:12:05.805Z,5.90
2018-12-25T05:14:39.523Z,5.75
2018-12-25T05:17:13.271Z,5.78
2018-12-25T05:19:46.919Z,4.80
2018-12-25T05:22:20.489Z,5.37
2018-12-25T05:24:55.576Z,4.20
2018-12-25T05:27:29.366Z,5.53
2018-12-25T05:30:03.434Z,5.37
2018-12-25T05:32:37.160Z,5.78
2018-12-25T05:35:10.935Z,4.82
2018-12-25T05:37:44.563Z,6.25
2018-12-25T05:40:19.063Z,5.62
2018-12-25T05:42:52.714Z,5.85
2018-12-25T05:45:26.276Z,4.93
2018-12-25T05:48:00.699Z,6.07
2018-12-25T05:50:34.297Z,5.20
2018-12-25T05:53:07.878Z,6.40
2018-12-25T05:55:41.401Z,5.25
2018-12-25T05:58:15.092Z,5.60
2018-12-25T06:00:48.780Z,6.18
2018-12-25T06:03:22.508Z,5.53
2018-12-25T06:05:57.072Z,5.68
2018-12-25T06:08:31.586Z,5.62
2018-12-25T06:11:05.148Z,5.50
2018-12-25T06:13:38.761Z,4.80
2018-12-25T06:16:12.298Z,4.78
2018-12-25T06:18:45.879Z,7.00
2018-12-25T06:21:20.384Z,6.20
2018-12-25T06:23:54.067Z,6.20
2018-12-25T06:26:28.487Z,6.50
2018-12-25T06:29:02.353Z,4.95
2018-12-25T06:31:36.192Z,6.47
2018-12-25T06:34:10.086Z,5.90
2018-12-25T06:36:44.451Z,4.53
2018-12-25T06:39:17.953Z,6.37
2018-12-25T06:41:51.511Z,5.32
2018-12-25T06:44:25.090Z,5.20
2018-12-25T06:46:59.496Z,5.65
2018-12-25T06:49:33.148Z,5.60
2018-12-25T06:52:07.615Z,4.85
2018-12-25T06:54:41.317Z,6.32
2018-12-25T06:57:14.883Z,6.40
2018-12-25T06:59:48.542Z,6.90
2018-12-25T07:02:22.118Z,5.90
2018-12-25T07:04:55.708Z,5.20
2018-12-25T07:07:29.314Z,5.93
2018-12-25T07:10:02.925Z,7.80
2018-12-25T07:12:36.511Z,5.30
2018-12-25T07:15:10.259Z,5.57
2018-12-25T07:17:44.776Z,5.20
2018-12-25T07:20:18.485Z,5.05
2018-12-25T07:22:52.087Z,5.70
2018-12-25T07:25:26.559Z,6.53
2018-12-25T07:28:00.115Z,6.85
2018-12-25T07:30:33.865Z,5.00
2018-12-25T07:33:07.509Z,5.15
2018-12-25T07:35:41.183Z,5.72
2018-12-25T07:38:14.754Z,6.43
2018-12-25T07:40:48.300Z,5.32
2018-12-25T07:43:21.974Z,7.00
2018-12-25T07:45:55.782Z,5.05
2018-12-25T07:48:29.428Z,5.43
2018-12-25T07:51:03.126Z,6.05
2018-12-25T07:53:36.708Z,5.40
2018-12-25T07:56:10.289Z,6.20
2018-12-25T07:58:43.847Z,5.93
2018-12-25T08:01:17.389Z,7.03
2018-12-25T08:03:51.083Z,6.10
2018-12-25T08:06:24.612Z,5.60
2018-12-25T08:08:58.241Z,5.60
2018-12-25T08:11:31.804Z,6.85
2018-12-25T08:14:05.407Z,5.32
2018-12-25T08:16:39.030Z,6.07
2018-12-25T08:19:12.753Z,6.40
2018-12-25T08:21:46.405Z,6.87
2018-12-25T08:24:20.162Z,7.47
2018-12-25T08:26:54.641Z,5.90
2018-12-25T08:29:28.282Z,5.87
2018-12-25T08:32:01.951Z,7.12
2018-12-25T08:34:35.787Z,6.62
2018-12-25T08:37:09.629Z,7.30
2018-12-25T08:39:43.239Z,7.05
2018-12-25T08:42:17.024Z,6.80
2018-12-25T08:44:50.655Z,7.62
2018-12-25T08:47:24.527Z,7.55
2018-12-25T08:49:58.175Z,6.60
2018-12-25T08:52:31.980Z,7.70
2018-12-25T08:55:06.535Z,7.72
2018-12-25T08:57:40.288Z,8.07
2018-12-25T09:00:14.042Z,8.20
2018-12-25T09:02:47.742Z,7.18
2018-12-25T09:05:21.319Z,9.35
2018-12-25T09:07:55.056Z,6.68
2018-12-25T09:10:28.741Z,8.55
2018-12-25T09:13:04.865Z,6.30
2018-12-25T09:15:38.700Z,9.15
2018-12-25T09:18:12.368Z,7.55
2018-12-25T09:20:45.913Z,5.20
2018-12-25T09:23:19.496Z,7.80
2018-12-25T09:25:53.280Z,6.60
2018-12-25T09:28:26.925Z,5.95
2018-12-25T09:31:00.531Z,6.50
2018-12-25T09:33:34.244Z,6.00
2018-12-25T09:36:08.530Z,6.07
2018-12-25T09:38:42.251Z,7.75
2018-12-25T09:41:15.823Z,6.30
2018-12-25T09:43:49.419Z,5.70
2018-12-25T09:46:22.998Z,6.50
2018-12-25T09:48:56.547Z,5.60
2018-12-25T09:51:30.112Z,5.70
2018-12-25T09:54:03.750Z,5.68
2018-12-25T09:56:37.353Z,5.20
2018-12-25T09:59:10.909Z,6.85
2018-12-25T10:01:44.558Z,6.43
2018-12-25T10:04:18.145Z,5.12
2018-12-25T10:06:51.726Z,5.78
2018-12-25T10:09:25.440Z,4.97
2018-12-25T10:11:58.971Z,6.10
2018-12-25T10:14:32.645Z,4.50
2018-12-25T10:17:06.288Z,5.68
2018-12-25T10:19:39.969Z,5.90
2018-12-25T10:22:14.483Z,4.62
2018-12-25T10:24:48.355Z,5.15
2018-12-25T10:27:21.962Z,5.50
2018-12-25T10:29:55.741Z,5.95
2018-12-25T10:32:29.329Z,5.03
2018-12-25T10:35:02.989Z,6.53
2018-12-25T10:37:36.566Z,6.40
2018-12-25T10:40:10.291Z,4.55
2018-12-25T10:42:43.897Z,7.15
2018-12-25T10:45:18.443Z,6.30
2018-12-25T10:47:52.221Z,5.80
2018-12-25T10:50:26.024Z,7.55
2018-12-25T10:52:59.667Z,6.62
2018-12-25T10:55:33.340Z,6.10
2018-12-25T10:58:07.853Z,7.30
2018-12-25T11:00:41.709Z,6.00
2018-12-25T11:03:15.420Z,6.07
2018-12-25T11:05:49.818Z,6.65
2018-12-25T11:08:23.540Z,8.05
2018-12-25T11:10:57.079Z,6.68
2018-12-25T11:13:30.726Z,7.03
2018-12-25T11:16:04.621Z,7.65
2018-12-25T11:18:39.024Z,5.82
2018-12-25T11:21:12.685Z,6.70
2018-12-25T11:23:46.415Z,5.72
2018-12-25T11:26:20.110Z,6.78
2018-12-25T11:28:53.772Z,5.60
2018-12-25T11:31:27.486Z,5.75
2018-12-25T11:34:02.577Z,5.40
2018-12-25T11:36:34.897Z,5.60
2018-12-25T11:39:08.400Z,4.30
2018-12-25T11:41:42.131Z,6.03
2018-12-25T11:44:15.742Z,6.20
2018-12-25T11:46:49.473Z,5.72
2018-12-25T11:49:23.199Z,6.05
2018-12-25T11:51:56.987Z,6.20
2018-12-25T11:54:30.742Z,5.40
2018-12-25T11:57:04.290Z,6.85
2018-12-25T11:59:38.084Z,6.93
2018-12-25T12:02:17.053Z,5.87
2018-12-25T12:04:46.458Z,5.78
2018-12-25T12:07:20.138Z,5.62
2018-12-25T12:09:53.861Z,5.30
2018-12-25T12:12:27.615Z,5.60
2018-12-25T12:15:01.250Z,4.93
2018-12-25T12:17:34.903Z,4.85
2018-12-25T12:20:08.465Z,5.20
2018-12-25T12:22:42.203Z,5.75
2018-12-25T12:25:15.848Z,5.93
2018-12-25T12:27:49.453Z,5.53
2018-12-25T12:30:22.982Z,5.90
2018-12-25T12:32:56.559Z,3.47
2018-12-25T12:35:30.117Z,6.03
2018-12-25T12:38:04.032Z,6.10
2018-12-25T12:40:40.483Z,5.53
2018-12-25T12:43:12.221Z,5.20
2018-12-25T12:45:45.889Z,6.40
2018-12-25T12:48:19.671Z,5.55
2018-12-25T12:50:53.399Z,4.97
2018-12-25T12:53:27.101Z,4.85
2018-12-25T12:56:00.788Z,5.68
2018-12-25T12:58:34.318Z,4.65
2018-12-25T13:01:08.034Z,6.37
2018-12-25T13:03:41.730Z,5.43
2018-12-25T13:06:16.437Z,5.53
2018-12-25T13:08:49.948Z,5.03
2018-12-25T13:11:23.505Z,5.35
2018-12-25T13:13:58.156Z,6.40
2018-12-25T13:16:31.828Z,6.00
2018-12-25T13:19:05.383Z,4.47
2018-12-25T13:21:39.121Z,6.35
2018-12-25T13:24:12.658Z,7.07
2018-12-25T13:26:47.159Z,5.60
2018-12-25T13:29:21.023Z,7.28
2018-12-25T13:31:54.672Z,4.50
2018-12-25T13:34:28.445Z,6.22
2018-12-25T13:37:02.271Z,6.47
2018-12-25T13:39:36.847Z,5.90
2018-12-25T13:42:10.648Z,5.15
2018-12-25T13:44:44.275Z,5.65
2018-12-25T13:47:18.091Z,5.50
2018-12-25T13:49:51.781Z,5.78
2018-12-25T13:52:25.356Z,4.93
2018-12-25T13:54:59.666Z,5.90
2018-12-25T13:57:33.463Z,5.37
2018-12-25T14:00:07.184Z,4.72
2018-12-25T14:02:40.774Z,5.75
2018-12-25T14:05:14.580Z,6.90
2018-12-25T14:07:48.271Z,5.30
2018-12-25T14:10:21.989Z,5.90
2018-12-25T14:12:55.558Z,5.03
2018-12-25T14:15:29.303Z,5.10
2018-12-25T14:18:02.889Z,6.55
2018-12-25T14:20:36.728Z,4.55
2018-12-25T14:23:11.380Z,5.22
2018-12-25T14:25:44.947Z,5.28
2018-12-25T14:28:18.484Z,6.43
2018-12-25T14:30:52.050Z,6.07
2018-12-25T14:33:26.446Z,5.18
2018-12-25T14:36:00.175Z,6.22
2018-12-25T14:38:33.884Z,5.15
2018-12-25T14:41:09.364Z,5.57
2018-12-25T14:43:41.201Z,5.00
2018-12-25T14:46:15.203Z,5.10
2018-12-25T14:48:49.704Z,5.95
2018-12-25T14:51:23.312Z,4.55
2018-12-25T14:53:56.932Z,4.07
2018-12-25T14:56:30.542Z,5.25
2018-12-25T14:59:04.199Z,6.55
2018-12-25T15:01:38.082Z,5.93
2018-12-25T15:04:12.559Z,5.68
2018-12-25T15:06:46.254Z,7.00
2018-12-25T15:09:19.847Z,6.35
2018-12-25T15:11:53.679Z,8.18
2018-12-25T15:14:27.355Z,5.12
2018-12-25T15:17:00.975Z,8.05
2018-12-25T15:19:35.482Z,7.05
2018-12-25T15:22:09.559Z,3.83
2018-12-25T15:24:43.307Z,5.05
2018-12-25T15:27:17.096Z,3.33
2018-12-25T15:29:50.747Z,6.40
2018-12-25T15:32:24.300Z,5.95
2018-12-25T15:34:58.618Z,5.40
2018-12-25T15:37:32.942Z,4.45
2018-12-25T15:40:07.005Z,5.78
2018-12-25T15:42:40.831Z,5.47
2018-12-25T15:45:14.582Z,5.25
2018-12-25T15:47:48.399Z,6.80
2018-12-25T15:50:22.141Z,6.47
2018-12-25T15:52:55.694Z,6.37
2018-12-25T15:55:29.474Z,7.07
2018-12-25T15:58:03.215Z,6.53
2018-12-25T16:00:36.846Z,8.00
2018-12-25T16:03:10.675Z,5.87
2018-12-25T16:05:44.496Z,7.85
2018-12-25T16:08:18.167Z,6.18
2018-12-25T16:10:52.581Z,6.43
2018-12-25T16:13:27.052Z,6.78
2018-12-25T16:16:00.749Z,6.65
2018-12-25T16:18:34.313Z,5.22
2018-12-25T16:21:08.056Z,6.80
2018-12-25T16:23:45.476Z,7.90
2018-12-25T16:26:16.496Z,7.50
2018-12-25T16:28:50.247Z,6.82
2018-12-25T16:31:23.876Z,8.63
2018-12-25T16:33:57.676Z,6.53
2018-12-25T16:36:31.456Z,7.20
2018-12-25T16:39:05.194Z,5.47
2018-12-25T16:41:38.831Z,4.82
2018-12-25T16:44:12.491Z,4.90
2018-12-25T16:46:46.302Z,4.90
2018-12-25T16:49:20.009Z,6.30
2018-12-25T16:51:53.710Z,6.00
2018-12-25T16:54:27.432Z,5.72
2018-12-25T16:57:01.967Z,6.40
2018-12-25T16:59:35.595Z,5.45
2018-12-25T17:02:09.310Z,6.65
2018-12-25T17:04:42.876Z,6.10
2018-12-25T17:07:16.581Z,5.57
2018-12-25T17:09:50.326Z,6.57
2018-12-25T17:12:24.666Z,5.50
2018-12-25T17:14:58.330Z,7.22
2018-12-25T17:17:31.996Z,6.82
2018-12-25T17:20:05.587Z,7.07
2018-12-25T17:22:39.113Z,6.57
2018-12-25T17:25:12.799Z,6.70
2018-12-25T17:27:46.586Z,6.78
2018-12-25T17:30:20.208Z,6.07
2018-12-25T17:32:55.571Z,4.90
2018-12-25T17:35:27.520Z,7.68
2018-12-25T17:38:01.099Z,5.50
2018-12-25T17:40:34.939Z,6.60
2018-12-25T17:43:08.628Z,7.45
2018-12-25T17:45:42.215Z,6.72
2018-12-25T17:48:16.006Z,7.20
2018-12-25T17:50:49.725Z,8.00
2018-12-25T17:53:24.064Z,7.05
2018-12-25T17:55:57.785Z,6.28
2018-12-25T17:58:32.055Z,8.35
2018-12-25T18:01:06.430Z,6.90
2018-12-25T18:03:40.100Z,6.55
2018-12-25T18:06:13.765Z,8.27
2018-12-25T18:08:47.584Z,8.93
2018-12-25T18:11:21.296Z,7.80
2018-12-25T18:13:55.329Z,7.60
2018-12-25T18:16:30.124Z,7.95
2018-12-25T18:19:02.651Z,7.47
2018-12-25T18:21:36.228Z,7.97
2018-12-25T18:24:09.861Z,8.00
2018-12-25T18:26:44.395Z,6.82
2018-12-25T18:29:18.053Z,8.00
2018-12-25T18:31:51.590Z,7.60
2018-12-25T18:34:25.141Z,8.75
2018-12-25T18:36:59.579Z,8.10
2018-12-25T18:39:33.379Z,10.25
2018-12-25T18:42:06.921Z,7.20
2018-12-25T18:44:40.625Z,8.00
2018-12-25T18:47:14.206Z,7.43
2018-12-25T18:49:48.677Z,8.98
2018-12-25T18:52:22.999Z,9.63
2018-12-25T18:54:57.365Z,8.70
2018-12-25T18:57:30.911Z,9.32
2018-12-25T19:00:04.544Z,8.60
2018-12-25T19:02:38.020Z,8.68
2018-12-25T19:05:11.671Z,8.63
2018-12-25T19:07:45.418Z,11.20
2018-12-25T19:10:18.959Z,8.18
2018-12-25T19:12:52.688Z,7.03
2018-12-25T19:15:27.584Z,7.60
2018-12-25T19:18:01.291Z,7.18
2018-12-25T19:20:35.811Z,7.07
2018-12-25T19:23:09.616Z,7.40
2018-12-25T19:25:43.171Z,8.68
2018-12-25T19:28:16.790Z,8.73
2018-12-25T19:30:50.427Z,8.38
2018-12-25T19:33:24.007Z,8.23
2018-12-25T19:35:57.604Z,9.15
2018-12-25T19:38:31.374Z,7.78
2018-12-25T19:41:04.995Z,7.45
2018-12-25T19:43:38.626Z,7.43
2018-12-25T19:46:12.447Z,8.02
2018-12-25T19:48:46.956Z,7.65
2018-12-25T19:51:20.694Z,6.53
2018-12-25T19:53:55.176Z,8.35
2018-12-25T19:56:29.619Z,7.37
2018-12-25T19:59:03.324Z,7.62
2018-12-25T20:01:37.108Z,6.53
2018-12-25T20:04:10.685Z,6.15
2018-12-25T20:06:52.115Z,6.72
2018-12-25T20:09:52.483Z,8.93
2018-12-25T20:12:50.066Z,7.87
2018-12-25T20:15:29.675Z,6.93
2018-12-25T20:21:26.401Z,10.05
2018-12-25T20:24:19.487Z,8.23
2018-12-25T20:27:04.120Z,8.48
2018-12-25T20:29:58.666Z,7.40
2018-12-25T20:32:43.930Z,8.77
2018-12-25T20:35:23.183Z,8.88
2018-12-25T20:41:11.040Z,8.80
2018-12-25T20:44:11.263Z,8.77
2018-12-25T20:47:00.591Z,8.38
2018-12-25T20:49:55.045Z,9.15
2018-12-25T20:55:49.822Z,11.53
2018-12-25T20:58:31.161Z,10.90
2018-12-25T21:01:08.518Z,8.23
2018-12-25T21:07:04.907Z,10.20
2018-12-25T21:12:57.648Z,11.60
2018-12-25T21:18:46.175Z,12.30
2018-12-25T21:21:19.800Z,9.50
2018-12-25T21:24:05.678Z,9.27
2018-12-25T21:26:51.096Z,8.93
2018-12-25T21:29:24.813Z,8.60
2018-12-25T21:31:58.532Z,8.88
2018-12-25T21:34:32.129Z,9.55
2018-12-25T21:37:05.752Z,9.88
2018-12-25T21:39:39.394Z,8.32
2018-12-25T21:42:13.911Z,8.30
2018-12-25T21:44:47.744Z,9.15
2018-12-25T21:47:21.376Z,7.25
2018-12-25T21:49:55.893Z,10.20
2018-12-25T21:52:29.454Z,8.82
2018-12-25T21:55:03.179Z,8.27
2018-12-25T21:57:37.134Z,7.37
2018-12-25T22:00:10.699Z,7.95
2018-12-25T22:02:44.296Z,8.95
2018-12-25T22:05:17.888Z,8.27
2018-12-25T22:07:51.434Z,10.32
2018-12-25T22:10:25.057Z,9.18
2018-12-25T22:12:59.395Z,10.45
2018-12-25T22:15:33.164Z,9.73
2018-12-25T22:18:06.733Z,9.20
2018-12-25T22:20:40.296Z,8.15
2018-12-25T22:23:13.927Z,8.70
2018-12-25T22:25:47.501Z,8.30
2018-12-25T22:28:21.180Z,8.65
2018-12-25T22:30:54.677Z,9.07
2018-12-25T22:33:29.265Z,6.72
2018-12-25T22:36:02.855Z,8.98
2018-12-25T22:38:36.618Z,8.55
2018-12-25T22:41:10.155Z,8.75
2018-12-25T22:43:43.869Z,8.55
2018-12-25T22:46:17.867Z,10.07
2018-12-25T22:48:51.603Z,9.43
2018-12-25T22:51:25.421Z,8.98
2018-12-25T22:53:59.212Z,8.80
2018-12-25T22:56:32.983Z,7.22
2018-12-25T22:59:06.848Z,6.30
2018-12-25T23:01:40.607Z,8.38
2018-12-25T23:04:14.369Z,8.05
2018-12-25T23:06:48.078Z,8.15
2018-12-25T23:09:21.733Z,8.43
2018-12-25T23:11:55.390Z,8.65
2018-12-25T23:14:28.991Z,8.38
2018-12-25T23:17:02.751Z,7.20
2018-12-25T23:19:36.348Z,8.18
2018-12-25T23:22:10.140Z,9.02
2018-12-25T23:24:43.857Z,8.15
2018-12-25T23:27:17.367Z,7.65
2018-12-25T23:29:51.020Z,8.75
2018-12-25T23:32:25.381Z,7.82
2018-12-25T23:34:59.205Z,9.38
2018-12-25T23:37:32.769Z,7.68
2018-12-25T23:40:06.325Z,9.00
2018-12-25T23:42:39.940Z,9.80
2018-12-25T23:45:13.605Z,9.23
2018-12-25T23:47:47.207Z,8.63
2018-12-25T23:50:21.045Z,7.87
2018-12-25T23:52:54.818Z,9.35
2018-12-25T23:55:28.671Z,9.77
2018-12-25T23:58:03.113Z,7.95
